Time;durP1;ratioP1;P1;durP2;ratioP2;P2;SDS_P1;SDS_P2;PMS_P1;PMS_P2;Temp;Humidity;BMP_temperature;BMP_pressure;BME280_temperature;BME280_humidity;BME280_pressure;Samples;Min_cycle;Max_cycle;Signal;HPM_P1;HPM_P2
2023/03/06 00:02:22;;;;;;;2.33;1.90;;;;;;;1.89;89.03;100938.44;5071434;28;20106;-77
2023/03/06 00:04:49;;;;;;;2.58;2.05;;;;;;;1.85;89.16;100924.53;5070236;28;20069;-77
2023/03/06 00:07:16;;;;;;;3.80;2.10;;;;;;;1.85;89.61;100924.53;5071833;28;20049;-77
2023/03/06 00:09:42;;;;;;;2.63;2.10;;;;;;;1.85;89.34;100929.03;5070668;28;20425;-77
2023/03/06 00:12:09;;;;;;;1.92;1.83;;;;;;;1.85;89.47;100924.53;5072280;28;20045;-77
2023/03/06 00:14:35;;;;;;;3.20;2.08;;;;;;;1.82;89.33;100919.28;5075306;28;20131;-77
2023/03/06 00:17:02;;;;;;;3.60;2.33;;;;;;;1.79;89.50;100920.78;5074446;28;20512;-77
2023/03/06 00:19:29;;;;;;;2.45;2.25;;;;;;;1.77;89.46;100917.78;5072910;28;20049;-77
2023/03/06 00:21:56;;;;;;;4.78;2.50;;;;;;;1.74;89.70;100917.78;5075200;28;20084;-77
2023/03/06 00:24:22;;;;;;;5.68;2.40;;;;;;;1.75;89.96;100919.28;5074720;28;20045;-77
2023/03/06 00:26:49;;;;;;;3.45;2.47;;;;;;;1.67;90.16;100905.41;5074908;28;20054;-77
2023/03/06 00:29:16;;;;;;;3.00;2.60;;;;;;;1.65;90.29;100905.78;5073639;28;20049;-77
2023/03/06 00:31:46;;;;;;;2.53;2.10;;;;;;;1.66;90.42;100901.28;5073262;28;20059;-77
2023/03/06 00:34:13;;;;;;;2.63;2.42;;;;;;;1.63;90.63;100896.78;5073765;28;20544;-77
2023/03/06 00:36:40;;;;;;;2.40;2.20;;;;;;;1.61;90.79;100896.41;5073328;28;20111;-77
2023/03/06 00:39:08;;;;;;;3.47;2.55;;;;;;;1.59;90.94;100894.19;5074900;28;20037;-77
2023/03/06 00:41:35;;;;;;;2.80;2.60;;;;;;;1.55;91.38;100890.03;5073302;28;20103;-77
2023/03/06 00:44:01;;;;;;;3.17;2.22;;;;;;;1.52;91.30;100886.28;5075393;28;20540;-77
2023/03/06 00:46:27;;;;;;;4.43;2.42;;;;;;;1.50;91.47;100872.78;5074507;28;20072;-77
2023/03/06 00:48:54;;;;;;;3.22;2.92;;;;;;;1.47;91.75;100867.53;5074617;28;20413;-77
2023/03/06 00:51:21;;;;;;;3.85;3.15;;;;;;;1.46;91.90;100871.28;5074754;28;20486;-77
2023/03/06 00:53:47;;;;;;;4.35;2.88;;;;;;;1.42;91.91;100865.28;5074432;28;20052;-77
2023/03/06 00:56:14;;;;;;;3.35;2.80;;;;;;;1.42;92.18;100860.03;5073145;28;20045;-76
2023/03/06 00:58:46;;;;;;;5.75;3.60;;;;;;;1.38;92.49;100860.03;5075003;28;20037;-77
2023/03/06 01:01:12;;;;;;;3.75;3.38;;;;;;;1.35;92.90;100858.16;5073026;28;20045;-77
2023/03/06 01:03:39;;;;;;;6.60;3.65;;;;;;;1.34;93.06;100854.03;5074090;28;20501;-77
2023/03/06 01:06:06;;;;;;;5.60;3.92;;;;;;;1.33;93.28;100852.53;5073486;28;20524;-77
2023/03/06 01:08:34;;;;;;;3.67;3.38;;;;;;;1.33;93.63;100850.66;5074168;28;20037;-77
2023/03/06 01:11:00;;;;;;;4.60;4.20;;;;;;;1.33;93.64;100844.66;5074598;28;20494;-77
2023/03/06 01:13:27;;;;;;;5.05;3.83;;;;;;;1.31;93.66;100837.16;5072725;28;20053;-77
2023/03/06 01:15:53;;;;;;;7.00;4.05;;;;;;;1.31;94.05;100846.91;5072863;28;20057;-77
2023/03/06 01:18:20;;;;;;;6.07;3.92;;;;;;;1.30;94.50;100834.91;5072336;28;20045;-78
2023/03/06 01:20:47;;;;;;;4.43;3.97;;;;;;;1.29;94.15;100839.41;5074118;28;20040;-77
2023/03/06 01:23:14;;;;;;;4.85;4.40;;;;;;;1.29;94.21;100828.16;5073175;28;20481;-77
2023/03/06 01:25:43;;;;;;;5.05;4.38;;;;;;;1.29;94.42;100830.78;5072271;28;20732;-77
2023/03/06 01:28:09;;;;;;;5.10;4.55;;;;;;;1.30;94.41;100832.28;5074189;28;20041;-77
2023/03/06 01:30:36;;;;;;;5.55;5.05;;;;;;;1.25;94.68;100822.16;5072528;28;20040;-77
2023/03/06 01:33:02;;;;;;;8.15;5.45;;;;;;;1.25;94.77;100835.28;5071790;28;20433;-76
2023/03/06 01:35:29;;;;;;;6.10;5.53;;;;;;;1.21;94.95;100831.91;5073327;28;20060;-78
2023/03/06 01:37:55;;;;;;;7.05;5.88;;;;;;;1.21;95.25;100834.50;5074471;28;20041;-77
2023/03/06 01:40:22;;;;;;;6.60;6.07;;;;;;;1.18;95.42;100827.41;5072653;28;20095;-77
2023/03/06 01:42:49;;;;;;;8.93;5.75;;;;;;;1.15;95.78;100836.03;5072648;28;20056;-77
2023/03/06 01:45:15;;;;;;;8.55;6.32;;;;;;;1.12;96.14;100832.28;5073841;28;20132;-77
2023/03/06 01:47:43;;;;;;;9.18;6.55;;;;;;;1.11;96.18;100830.03;5073516;28;20409;-77
2023/03/06 01:50:11;;;;;;;8.02;6.30;;;;;;;1.08;96.46;100828.91;5073385;28;20118;-76
2023/03/06 01:52:59;;;;;;;7.90;6.82;;;;;;;1.04;96.47;100828.13;5074299;28;20107;-76
2023/03/06 01:55:31;;;;;;;10.15;7.03;;;;;;;1.01;96.85;100826.25;5074819;28;20132;-76
2023/03/06 01:58:02;;;;;;;7.60;6.57;;;;;;;0.97;97.05;100815.75;5074268;28;20045;-77
2023/03/06 02:00:29;;;;;;;7.18;6.07;;;;;;;0.94;96.99;100816.50;5073363;28;20482;-77
2023/03/06 02:03:03;;;;;;;9.35;7.40;;;;;;;0.91;97.28;100814.63;5073771;28;20053;-77
2023/03/06 02:05:30;;;;;;;12.95;7.57;;;;;;;0.90;97.44;100813.13;5074807;28;20532;-77
2023/03/06 02:07:57;;;;;;;8.70;7.38;;;;;;;0.85;97.53;100803.00;5073612;28;20049;-77
2023/03/06 02:10:23;;;;;;;8.43;7.53;;;;;;;0.81;97.57;100798.88;5073549;28;20048;-77
2023/03/06 02:12:51;;;;;;;9.18;7.53;;;;;;;0.78;97.68;100791.78;5074062;28;20134;-77
2023/03/06 02:15:21;;;;;;;8.35;7.45;;;;;;;0.77;97.71;100790.25;5071436;28;20060;-77
2023/03/06 02:17:50;;;;;;;8.57;7.75;;;;;;;0.75;98.00;100793.25;5072227;28;20049;-77
2023/03/06 02:20:27;;;;;;;8.50;7.57;;;;;;;0.72;97.66;100798.50;5073449;28;20037;-77
2023/03/06 02:23:09;;;;;;;9.27;7.80;;;;;;;0.71;97.94;100794.38;5073655;28;20520;-77
2023/03/06 02:25:44;;;;;;;10.30;8.23;;;;;;;0.69;97.86;100794.72;5073222;28;20045;-77
2023/03/06 02:28:14;;;;;;;10.63;8.65;;;;;;;0.66;97.99;100792.84;5072045;28;20581;-77
2023/03/06 02:30:42;;;;;;;12.40;8.57;;;;;;;0.64;98.27;100789.84;5072384;28;20045;-77
2023/03/06 02:33:16;;;;;;;9.75;8.38;;;;;;;0.63;98.67;100783.09;5071140;28;20053;-77
2023/03/06 02:35:48;;;;;;;13.20;8.70;;;;;;;0.64;98.45;100787.97;5072547;28;20060;-77
2023/03/06 02:38:18;;;;;;;12.02;9.35;;;;;;;0.61;98.71;100780.84;5073117;28;20477;-77
2023/03/06 02:40:48;;;;;;;12.95;8.93;;;;;;;0.63;98.92;100773.38;5073051;28;20041;-77
2023/03/06 02:43:21;;;;;;;11.50;9.32;;;;;;;0.63;98.84;100778.63;5071257;28;20049;-77
2023/03/06 02:45:50;;;;;;;12.35;9.18;;;;;;;0.63;99.07;100775.25;5072593;28;20048;-77
2023/03/06 02:48:18;;;;;;;11.40;8.65;;;;;;;0.63;99.17;100765.53;5072561;28;20052;-76
2023/03/06 02:50:45;;;;;;;16.77;9.70;;;;;;;0.65;99.35;100758.03;5072627;28;20045;-77
2023/03/06 02:53:13;;;;;;;11.98;9.20;;;;;;;0.66;99.84;100764.78;5072779;28;20055;-76
2023/03/06 02:55:40;;;;;;;14.10;8.98;;;;;;;0.69;99.92;100757.31;5071003;28;20064;-77
2023/03/06 02:58:07;;;;;;;11.18;8.82;;;;;;;0.72;100.00;100749.44;5073130;28;20472;-76
2023/03/06 03:00:34;;;;;;;12.95;9.50;;;;;;;0.73;100.00;100744.97;5070660;28;20045;-77
2023/03/06 03:03:04;;;;;;;12.35;8.98;;;;;;;0.77;100.00;100740.47;5072817;28;20134;-77
2023/03/06 03:05:31;;;;;;;11.15;8.65;;;;;;;0.80;100.00;100740.47;5070865;28;20069;-75
2023/03/06 03:08:06;;;;;;;11.77;8.95;;;;;;;0.81;100.00;100728.09;5071241;28;20045;-75
2023/03/06 03:10:33;;;;;;;14.25;8.63;;;;;;;0.83;100.00;100734.47;5070788;28;20532;-76
2023/03/06 03:12:59;;;;;;;14.63;9.27;;;;;;;0.84;100.00;100729.97;5071452;28;20053;-76
2023/03/06 03:15:26;;;;;;;13.98;9.13;;;;;;;0.84;100.00;100728.09;5069907;28;20138;-75
2023/03/06 03:17:52;;;;;;;11.15;8.52;;;;;;;0.86;100.00;100720.63;5071339;28;20448;-76
2023/03/06 03:20:21;;;;;;;13.32;8.77;;;;;;;0.87;100.00;100721.38;5070709;28;20537;-75
2023/03/06 03:22:53;;;;;;;14.00;8.88;;;;;;;0.88;100.00;100722.88;5070836;28;20055;-76
2023/03/06 03:25:22;;;;;;;10.15;8.80;;;;;;;0.88;100.00;100710.53;5072369;28;20045;-75
2023/03/06 03:27:50;;;;;;;13.38;9.10;;;;;;;0.88;100.00;100713.13;5070533;28;20041;-75
2023/03/06 03:30:17;;;;;;;9.60;8.52;;;;;;;0.89;100.00;100704.16;5072110;28;20047;-76
2023/03/06 03:32:44;;;;;;;15.35;8.52;;;;;;;0.91;100.00;100704.53;5070481;28;20172;-76
2023/03/06 03:35:11;;;;;;;11.50;8.63;;;;;;;0.92;100.00;100700.03;5070226;28;20070;-75
2023/03/06 03:37:38;;;;;;;10.60;8.40;;;;;;;0.93;100.00;100702.28;5070680;28;20072;-76
2023/03/06 03:40:06;;;;;;;13.95;9.38;;;;;;;0.94;100.00;100700.41;5070806;28;20135;-76
2023/03/06 03:42:33;;;;;;;12.43;8.50;;;;;;;0.94;100.00;100701.16;5071312;28;20522;-76
2023/03/06 03:45:00;;;;;;;9.90;8.02;;;;;;;0.96;100.00;100692.94;5072040;28;20045;-76
2023/03/06 03:47:27;;;;;;;11.45;8.40;;;;;;;0.96;100.00;100692.94;5070718;28;20091;-76
2023/03/06 03:49:53;;;;;;;12.02;8.93;;;;;;;0.98;100.00;100688.06;5070542;28;20045;-76
2023/03/06 03:52:20;;;;;;;12.02;8.40;;;;;;;0.99;100.00;100687.69;5070349;28;20049;-76
2023/03/06 03:54:47;;;;;;;14.30;8.20;;;;;;;1.00;100.00;100686.56;5070214;28;20049;-76
2023/03/06 03:57:13;;;;;;;12.35;7.28;;;;;;;1.03;100.00;100674.59;5071273;28;20073;-76
2023/03/06 03:59:45;;;;;;;;;;;;;;;1.06;100.00;100681.69;5070767;28;20425;-75
2023/03/06 04:02:22;;;;;;;13.35;6.90;;;;;;;1.08;100.00;100691.81;5070399;28;19932;-76
2023/03/06 04:04:58;;;;;;;11.07;7.38;;;;;;;1.09;100.00;100677.56;5055363;28;20138;-76
2023/03/06 04:07:25;;;;;;;11.27;6.15;;;;;;;1.10;100.00;100673.84;5069595;28;20045;-76
2023/03/06 04:09:52;;;;;;;9.52;7.07;;;;;;;1.12;100.00;100679.44;5070228;28;20041;-75
2023/03/06 04:12:19;;;;;;;9.02;6.82;;;;;;;1.13;100.00;100678.31;5071165;28;20043;-75
2023/03/06 04:14:46;;;;;;;10.00;6.93;;;;;;;1.15;100.00;100673.47;5070090;28;21931;-76
2023/03/06 04:17:13;;;;;;;7.18;6.18;;;;;;;1.15;100.00;100665.59;5069876;28;20103;-75
2023/03/06 04:19:39;;;;;;;8.95;6.78;;;;;;;1.16;100.00;100667.09;5070237;28;20065;-75
2023/03/06 04:22:06;;;;;;;8.43;6.95;;;;;;;1.18;100.00;100665.59;5070144;28;20055;-75
2023/03/06 04:24:35;;;;;;;11.48;7.10;;;;;;;1.17;100.00;100658.84;5069825;28;20144;-75
2023/03/06 04:27:02;;;;;;;10.23;7.55;;;;;;;1.18;100.00;100656.97;5071434;28;20041;-75
2023/03/06 04:29:29;;;;;;;8.35;6.88;;;;;;;1.18;100.00;100660.34;5069705;28;20559;-76
2023/03/06 04:31:56;;;;;;;12.00;7.45;;;;;;;1.19;100.00;100663.72;5071769;28;20514;-75
2023/03/06 04:34:23;;;;;;;9.68;7.15;;;;;;;1.20;100.00;100654.72;5069178;28;20077;-76
2023/03/06 04:36:49;;;;;;;10.15;7.03;;;;;;;1.20;100.00;100649.47;5053142;28;20572;-75
2023/03/06 04:39:16;;;;;;;12.30;7.50;;;;;;;1.19;100.00;100653.22;5069790;28;20956;-76
2023/03/06 04:41:43;;;;;;;9.07;6.25;;;;;;;1.21;100.00;100650.94;5069136;28;20077;-76
2023/03/06 04:44:10;;;;;;;10.43;6.53;;;;;;;1.21;100.00;100645.69;5071151;28;20041;-75
2023/03/06 04:46:37;;;;;;;8.63;6.72;;;;;;;1.21;100.00;100646.44;5071021;28;20080;-75
2023/03/06 04:49:04;;;;;;;8.05;6.60;;;;;;;1.22;100.00;100636.72;5071531;28;20037;-75
2023/03/06 04:51:31;;;;;;;7.40;5.82;;;;;;;1.23;100.00;100641.59;5070768;28;20099;-75
2023/03/06 04:53:57;;;;;;;9.35;6.75;;;;;;;1.25;100.00;100641.19;5071390;28;20494;-75
2023/03/06 04:56:24;;;;;;;7.88;6.30;;;;;;;1.26;100.00;100642.69;5068989;28;20520;-75
2023/03/06 04:58:50;;;;;;;8.45;5.82;;;;;;;1.27;100.00;100631.09;5073174;28;20045;-75
2023/03/06 05:01:17;;;;;;;7.20;5.35;;;;;;;1.28;100.00;100637.81;5074182;28;20052;-75
2023/03/06 05:03:44;;;;;;;11.55;6.25;;;;;;;1.31;100.00;100637.06;5074110;28;20044;-75
2023/03/06 05:06:10;;;;;;;6.65;5.50;;;;;;;1.32;100.00;100631.44;5073933;28;20120;-75
2023/03/06 05:08:37;;;;;;;5.45;4.40;;;;;;;1.36;100.00;100633.31;5074214;28;20041;-75
2023/03/06 05:11:03;;;;;;;7.70;4.88;;;;;;;1.39;100.00;100637.81;5073910;28;20087;-76
2023/03/06 05:13:30;;;;;;;4.63;4.22;;;;;;;1.41;100.00;100638.94;5074007;28;20048;-75
2023/03/06 05:16:04;;;;;;;4.75;3.72;;;;;;;1.44;100.00;100637.44;5074405;28;20051;-75
2023/03/06 05:18:32;;;;;;;3.97;3.67;;;;;;;1.48;100.00;100632.91;5073795;28;20474;-75
2023/03/06 05:20:59;;;;;;;3.88;3.55;;;;;;;1.49;100.00;100632.53;5074238;28;20056;-75
2023/03/06 05:23:30;;;;;;;3.80;3.50;;;;;;;1.51;100.00;100640.78;5073668;28;20064;-75
2023/03/06 05:25:56;;;;;;;5.75;3.65;;;;;;;1.53;100.00;100638.53;5074054;28;20048;-75
2023/03/06 05:28:24;;;;;;;3.85;3.55;;;;;;;1.54;100.00;100640.03;5073910;28;20041;-75
2023/03/06 05:30:51;;;;;;;3.20;2.85;;;;;;;1.55;100.00;100633.66;5074082;28;20092;-75
2023/03/06 05:33:17;;;;;;;5.32;3.20;;;;;;;1.56;100.00;100626.53;5073379;28;20049;-75
2023/03/06 05:35:46;;;;;;;3.65;3.20;;;;;;;1.56;100.00;100629.16;5074364;28;20037;-75
2023/03/06 05:38:14;;;;;;;2.83;2.63;;;;;;;1.55;100.00;100623.16;5074352;28;20036;-75
2023/03/06 05:40:42;;;;;;;3.72;3.42;;;;;;;1.55;100.00;100617.91;5074781;28;20037;-75
2023/03/06 05:43:10;;;;;;;3.13;2.83;;;;;;;1.56;100.00;100616.03;5074029;28;20632;-75
2023/03/06 05:45:37;;;;;;;4.35;3.22;;;;;;;1.57;100.00;100618.28;5073831;28;20068;-75
2023/03/06 05:48:04;;;;;;;6.10;3.45;;;;;;;1.57;100.00;100617.53;5073664;28;20056;-75
2023/03/06 05:50:32;;;;;;;3.65;3.35;;;;;;;1.56;100.00;100608.16;5073445;28;20048;-75
2023/03/06 05:52:58;;;;;;;6.00;3.40;;;;;;;1.54;100.00;100611.16;5073696;28;20116;-75
2023/03/06 05:55:25;;;;;;;4.82;4.32;;;;;;;1.53;100.00;100609.66;5075424;28;20053;-75
2023/03/06 05:57:52;;;;;;;7.55;3.70;;;;;;;1.52;100.00;100613.41;5076299;28;20076;-77
2023/03/06 06:00:19;;;;;;;4.45;3.60;;;;;;;1.51;100.00;100617.16;5075996;28;20477;-78
2023/03/06 06:02:46;;;;;;;5.15;3.85;;;;;;;1.49;100.00;100610.81;5075242;28;20041;-77
2023/03/06 06:05:13;;;;;;;6.63;3.58;;;;;;;1.47;100.00;100611.19;5074366;28;20527;-77
2023/03/06 06:07:40;;;;;;;4.63;3.58;;;;;;;1.47;100.00;100611.19;5073838;28;20429;-77
2023/03/06 06:10:08;;;;;;;4.65;3.80;;;;;;;1.47;100.00;100618.31;5073199;28;20045;-77
2023/03/06 06:12:34;;;;;;;6.20;4.15;;;;;;;1.47;100.00;100628.81;5073823;28;20045;-77
2023/03/06 06:15:01;;;;;;;3.97;3.50;;;;;;;1.45;100.00;100629.19;5074457;28;20486;-78
2023/03/06 06:17:27;;;;;;;3.92;3.53;;;;;;;1.47;100.00;100640.03;5073658;28;20045;-77
2023/03/06 06:19:54;;;;;;;3.92;3.40;;;;;;;1.48;100.00;100630.31;5073645;28;20041;-76
2023/03/06 06:22:20;;;;;;;7.65;3.55;;;;;;;1.51;100.00;100637.41;5073038;28;20045;-77
2023/03/06 06:24:47;;;;;;;4.25;3.53;;;;;;;1.53;100.00;100640.41;5073563;28;20072;-76
2023/03/06 06:27:13;;;;;;;4.15;2.90;;;;;;;1.55;100.00;100643.41;5073463;28;20124;-78
2023/03/06 06:29:40;;;;;;;4.57;2.80;;;;;;;1.59;100.00;100636.28;5073886;28;20065;-77
2023/03/06 06:32:07;;;;;;;3.00;2.70;;;;;;;1.60;100.00;100643.00;5074220;28;20402;-76
2023/03/06 06:34:33;;;;;;;4.00;2.70;;;;;;;1.63;100.00;100631.72;5073091;28;20057;-77
2023/03/06 06:37:00;;;;;;;3.33;2.20;;;;;;;1.66;100.00;100644.84;5073034;28;20521;-78
2023/03/06 06:39:27;;;;;;;4.57;2.72;;;;;;;1.67;100.00;100635.84;5073591;28;20073;-78
2023/03/06 06:41:54;;;;;;;4.53;2.30;;;;;;;1.70;100.00;100636.97;5072527;28;20041;-77
2023/03/06 06:44:41;;;;;;;2.58;1.95;;;;;;;1.73;100.00;100633.56;5074137;28;20048;-78
2023/03/06 06:47:07;;;;;;;1.80;1.70;;;;;;;1.78;100.00;100635.06;5074017;28;20599;-77
2023/03/06 06:49:51;;;;;;;2.95;1.95;;;;;;;1.81;100.00;100640.28;5072388;28;20520;-78
2023/03/06 06:52:18;;;;;;;2.90;1.90;;;;;;;1.87;100.00;100632.78;5072872;28;20124;-77
2023/03/06 06:54:45;;;;;;;5.28;1.83;;;;;;;1.91;100.00;100628.25;5072207;28;20505;-76
2023/03/06 06:57:11;;;;;;;3.10;1.48;;;;;;;1.95;100.00;100636.88;5073459;28;20049;-76
2023/03/06 06:59:38;;;;;;;1.65;1.55;;;;;;;1.96;100.00;100635.75;5073740;28;20045;-76
2023/03/06 07:02:04;;;;;;;1.45;1.35;;;;;;;1.98;100.00;100628.22;5073159;28;20045;-76
2023/03/06 07:04:31;;;;;;;2.67;1.95;;;;;;;2.03;100.00;100640.19;5072982;28;20057;-75
2023/03/06 07:06:58;;;;;;;3.00;1.40;;;;;;;2.05;100.00;100643.94;5072984;28;20464;-76
2023/03/06 07:09:25;;;;;;;1.60;1.38;;;;;;;2.09;100.00;100639.41;5072957;28;20056;-77
2023/03/06 07:11:51;;;;;;;1.33;1.30;;;;;;;2.13;100.00;100639.38;5073376;28;20490;-77
2023/03/06 07:14:18;;;;;;;1.45;1.35;;;;;;;2.16;100.00;100641.25;5073087;28;20048;-77
2023/03/06 07:16:44;;;;;;;2.65;1.17;;;;;;;2.20;100.00;100645.34;5073131;28;20514;-76
2023/03/06 07:19:11;;;;;;;2.15;1.10;;;;;;;2.25;100.00;100654.72;5071558;28;20568;-77
2023/03/06 07:21:37;;;;;;;0.90;0.90;;;;;;;2.30;100.00;100647.19;5072749;28;20524;-77
2023/03/06 07:24:04;;;;;;;1.63;1.38;;;;;;;2.37;100.00;100649.03;5073099;28;20512;-74
2023/03/06 07:26:31;;;;;;;1.40;1.30;;;;;;;2.44;100.00;100656.09;5072867;28;20493;-77
2023/03/06 07:29:01;;;;;;;1.05;1.05;;;;;;;2.48;100.00;100657.56;5071571;28;20546;-77
2023/03/06 07:31:27;;;;;;;1.00;1.00;;;;;;;2.55;100.00;100654.13;5071328;28;20529;-79
2023/03/06 07:33:54;;;;;;;1.20;1.10;;;;;;;2.57;100.00;100654.50;5070934;28;20140;-78
2023/03/06 07:36:22;;;;;;;1.00;0.90;;;;;;;2.62;100.00;100660.09;5072100;28;20052;-77
2023/03/06 07:38:49;;;;;;;1.08;1.08;;;;;;;2.70;99.76;100655.53;5072665;28;20041;-77
2023/03/06 07:41:17;;;;;;;0.77;0.77;;;;;;;2.82;99.42;100659.56;5054293;28;20462;-79
2023/03/06 07:43:47;;;;;;;4.95;1.10;;;;;;;2.92;98.76;100659.50;5072084;28;20495;-78
2023/03/06 07:46:13;;;;;;;1.00;1.00;;;;;;;2.99;98.08;100653.44;5072363;28;20496;-78
2023/03/06 07:48:40;;;;;;;1.38;1.23;;;;;;;3.07;97.61;100654.13;5072370;28;20045;-79
2023/03/06 07:51:13;;;;;;;1.55;1.02;;;;;;;3.19;96.94;100664.16;5072035;28;20120;-77
2023/03/06 07:53:40;;;;;;;2.42;1.10;;;;;;;3.24;96.17;100650.56;5071264;28;20530;-79
2023/03/06 07:56:07;;;;;;;1.13;1.00;;;;;;;3.32;95.61;100652.72;5072580;28;20151;-80
2023/03/06 07:58:36;;;;;;;1.77;1.05;;;;;;;3.36;94.43;100657.97;5072560;28;20045;-77
2023/03/06 08:01:04;;;;;;;0.70;0.70;;;;;;;3.40;93.82;100663.19;5070751;28;20045;-77
2023/03/06 08:03:31;;;;;;;1.83;0.90;;;;;;;3.51;93.43;100658.56;5072013;28;20459;-78
2023/03/06 08:06:11;;;;;;;0.90;0.85;;;;;;;3.63;93.39;100660.66;5072559;28;20571;-78
2023/03/06 08:08:39;;;;;;;1.27;1.02;;;;;;;3.73;91.91;100659.81;5072545;28;20045;-77
2023/03/06 08:11:07;;;;;;;1.02;0.88;;;;;;;3.79;90.99;100658.25;5072602;28;20048;-78
2023/03/06 08:13:34;;;;;;;0.88;0.88;;;;;;;3.84;90.84;100660.44;5072438;28;20119;-79
2023/03/06 08:16:01;;;;;;;4.00;0.70;;;;;;;3.85;89.40;100664.56;5072289;28;20123;-79
2023/03/06 08:18:28;;;;;;;0.77;0.70;;;;;;;3.82;87.52;100667.25;5071689;28;20049;-76
2023/03/06 08:21:15;;;;;;;0.75;0.75;;;;;;;3.85;88.12;100663.81;5072518;28;20044;-77
2023/03/06 08:23:43;;;;;;;1.33;0.93;;;;;;;3.87;87.08;100664.16;5072526;28;20049;-79
2023/03/06 08:26:12;;;;;;;0.60;0.60;;;;;;;3.96;86.92;100661.81;5054015;28;20049;-77
2023/03/06 08:28:38;;;;;;;3.22;0.75;;;;;;;4.07;86.49;100659.03;5070809;28;20049;-75
2023/03/06 08:31:29;;;;;;;1.13;0.70;;;;;;;4.08;85.37;100661.25;5072241;28;20041;-76
2023/03/06 08:33:58;;;;;;;3.45;0.50;;;;;;;4.10;84.35;100658.97;5071947;28;20049;-75
2023/03/06 08:36:25;;;;;;;1.25;0.60;;;;;;;4.11;84.67;100657.09;5075270;28;20052;-76
2023/03/06 08:38:52;;;;;;;0.50;0.50;;;;;;;4.17;83.86;100663.41;5074598;28;20506;-75
2023/03/06 08:41:19;;;;;;;1.25;0.65;;;;;;;4.25;83.85;100664.81;5075168;28;20127;-75
2023/03/06 08:43:46;;;;;;;1.80;0.70;;;;;;;4.32;82.83;100664.72;5075982;28;20103;-76
2023/03/06 08:46:13;;;;;;;0.55;0.55;;;;;;;4.43;82.10;100659.28;5075487;28;20049;-77
2023/03/06 08:48:40;;;;;;;3.03;0.75;;;;;;;4.46;81.78;100655.84;5075318;28;20052;-75
2023/03/06 08:51:10;;;;;;;1.38;0.60;;;;;;;4.60;81.64;100664.28;5075949;28;20073;-75
2023/03/06 08:53:36;;;;;;;0.85;0.60;;;;;;;4.69;80.67;100664.53;5075721;28;20118;-75
2023/03/06 08:56:16;;;;;;;0.40;0.40;;;;;;;4.74;78.46;100662.59;5075394;28;20052;-80
2023/03/06 08:58:42;;;;;;;2.22;0.70;;;;;;;4.84;78.33;100664.31;5075815;28;20123;-79
2023/03/06 09:01:18;;;;;;;5.68;0.60;;;;;;;4.97;77.95;100660.69;5073894;28;20124;-78
2023/03/06 09:03:44;;;;;;;1.38;0.80;;;;;;;5.07;77.38;100661.66;5075609;28;20049;-83
2023/03/06 09:06:12;;;;;;;1.40;0.50;;;;;;;5.10;77.64;100660.88;5074755;28;20095;-77
2023/03/06 09:08:41;;;;;;;0.47;0.47;;;;;;;5.17;76.21;100666.03;5075179;28;20076;-80
2023/03/06 09:11:10;;;;;;;0.50;0.50;;;;;;;5.20;76.35;100665.19;5074813;28;20052;-83
2023/03/06 09:13:36;;;;;;;0.40;0.40;;;;;;;5.29;75.34;100660.13;5071682;28;20049;-77
2023/03/06 09:16:03;;;;;;;0.50;0.47;;;;;;;5.36;75.05;100665.28;5072676;28;20621;-80
2023/03/06 09:18:30;;;;;;;1.27;0.60;;;;;;;5.53;74.00;100660.84;5074640;28;20041;-78
2023/03/06 09:20:56;;;;;;;1.75;0.60;;;;;;;5.61;73.07;100656.91;5074929;28;20501;-77
2023/03/06 09:23:23;;;;;;;0.70;0.70;;;;;;;5.61;72.77;100662.19;5074396;28;20052;-77
2023/03/06 09:25:54;;;;;;;0.63;0.63;;;;;;;5.66;71.29;100667.00;5074848;28;20037;-77
2023/03/06 09:28:21;;;;;;;0.40;0.40;;;;;;;5.63;70.69;100659.88;5074348;28;20497;-77
2023/03/06 09:30:48;;;;;;;0.50;0.50;;;;;;;5.53;71.21;100660.09;5074031;28;20494;-78
2023/03/06 09:33:15;;;;;;;1.17;0.47;;;;;;;5.45;70.46;100659.47;5073956;28;20045;-78
2023/03/06 09:35:53;;;;;;;0.85;0.60;;;;;;;5.50;71.12;100663.56;5074961;28;20051;-78
2023/03/06 09:38:23;;;;;;;0.68;0.40;;;;;;;5.59;70.03;100653.94;5074528;28;20128;-78
2023/03/06 09:41:01;;;;;;;2.03;0.43;;;;;;;5.85;68.34;100659.47;5074026;28;20084;-78
2023/03/06 09:43:34;;;;;;;1.92;0.40;;;;;;;6.08;68.83;100653.34;5074483;28;20160;-77
2023/03/06 09:46:35;;;;;;;1.95;0.60;;;;;;;6.29;68.73;100653.66;5073125;28;20075;-77
2023/03/06 09:49:14;;;;;;;0.93;0.73;;;;;;;6.39;67.47;100657.22;5074555;28;20040;-77
2023/03/06 09:52:05;;;;;;;1.00;0.60;;;;;;;6.40;67.26;100655.31;5074521;28;20041;-78
2023/03/06 09:54:43;;;;;;;1.10;0.50;;;;;;;6.33;66.51;100656.97;5074947;28;20049;-76
2023/03/06 09:57:24;;;;;;;0.93;0.75;;;;;;;6.33;66.73;100658.88;5073997;28;20498;-77
2023/03/06 09:59:54;;;;;;;0.93;0.50;;;;;;;6.18;66.66;100655.03;5074145;28;20080;-77
2023/03/06 10:02:23;;;;;;;4.50;0.57;;;;;;;6.05;66.42;100662.09;5072604;28;20264;-82
2023/03/06 10:04:59;;;;;;;2.63;0.57;;;;;;;6.05;65.82;100662.84;5072630;28;20053;-86
2023/03/06 10:07:39;;;;;;;2.38;0.40;;;;;;;6.21;64.69;100665.53;5058479;28;20542;-80
2023/03/06 10:10:22;;;;;;;1.92;0.47;;;;;;;6.34;64.95;100670.94;5072830;28;20049;-78
2023/03/06 10:13:02;;;;;;;0.40;0.40;;;;;;;6.32;64.98;100667.94;5074295;28;20063;-78
2023/03/06 10:15:33;;;;;;;1.42;0.70;;;;;;;6.46;64.65;100664.22;5073508;28;20033;-78
2023/03/06 10:18:01;;;;;;;0.60;0.60;;;;;;;6.51;61.89;100659.19;5072469;28;20064;-78
2023/03/06 10:20:35;;;;;;;0.82;0.38;;;;;;;6.52;60.92;100663.31;5072129;28;20057;-78
2023/03/06 10:23:13;;;;;;;0.93;0.43;;;;;;;6.55;60.46;100661.75;5074033;28;20053;-78
2023/03/06 10:25:49;;;;;;;0.40;0.40;;;;;;;6.64;60.16;100656.63;5106403;27;20049;-77
2023/03/06 10:28:19;;;;;;;0.63;0.25;;;;;;;6.61;59.49;100650.28;5105559;27;20049;-77
2023/03/06 10:31:00;;;;;;;374.65;194.85;;;;;;;6.79;60.17;100649.84;5073090;28;20082;-77
2023/03/06 10:33:48;;;;;;;9.00;5.63;;;;;;;6.80;59.38;100653.97;5072755;28;20055;-77
2023/03/06 10:36:17;;;;;;;2.78;1.40;;;;;;;6.84;58.73;100653.88;5073412;28;20087;-79
2023/03/06 10:38:47;;;;;;;1.42;1.30;;;;;;;6.86;57.92;100649.66;5073319;28;20202;-77
2023/03/06 10:41:34;;;;;;;0.77;0.68;;;;;;;6.92;58.73;100650.66;5072433;28;20493;-76
2023/03/06 10:44:03;;;;;;;0.77;0.60;;;;;;;6.94;58.28;100647.59;5072916;28;20096;-77
2023/03/06 10:46:36;;;;;;;1.95;0.57;;;;;;;6.92;58.27;100648.00;5071816;28;20053;-77
2023/03/06 10:49:08;;;;;;;0.68;0.52;;;;;;;7.07;58.25;100647.66;5073311;28;20036;-76
2023/03/06 10:51:34;;;;;;;;;;;;;;;7.17;59.85;100639.44;5073876;28;20510;-76
2023/03/06 10:54:13;;;;;;;0.77;0.60;;;;;;;7.13;58.00;100640.69;5074308;28;19928;-76
2023/03/06 10:56:45;;;;;;;0.55;0.50;;;;;;;7.17;57.69;100638.72;5072841;28;20049;-76
2023/03/06 10:59:17;;;;;;;0.40;0.40;;;;;;;7.20;57.05;100635.94;5071274;28;20045;-76
2023/03/06 11:01:45;;;;;;;1.15;0.60;;;;;;;7.22;56.97;100630.22;5057324;28;20095;-77
2023/03/06 11:04:29;;;;;;;0.52;0.30;;;;;;;7.33;57.72;100634.09;5072862;28;20048;-78
2023/03/06 11:07:15;;;;;;;0.43;0.43;;;;;;;7.41;56.77;100636.56;5073188;28;20068;-75
2023/03/06 11:09:46;;;;;;;0.30;0.30;;;;;;;7.39;56.41;100623.72;5072866;28;20045;-75
2023/03/06 11:12:31;;;;;;;0.57;0.57;;;;;;;7.48;56.84;100629.16;5072521;28;20045;-77
2023/03/06 11:15:16;;;;;;;0.40;0.40;;;;;;;7.57;57.02;100621.34;5073013;28;20053;-79
2023/03/06 11:17:51;;;;;;;1.55;0.30;;;;;;;7.68;55.89;100621.03;5073675;28;20049;-79
2023/03/06 11:20:20;;;;;;;0.50;0.50;;;;;;;7.70;54.39;100622.09;5072640;28;20116;-78
2023/03/06 11:22:58;;;;;;;0.40;0.40;;;;;;;7.67;54.80;100617.63;5072934;28;20073;-77
2023/03/06 11:25:41;;;;;;;0.40;0.38;;;;;;;7.57;55.14;100616.06;5072599;28;20052;-79
2023/03/06 11:28:28;;;;;;;0.77;0.50;;;;;;;7.58;55.46;100620.19;5072721;28;20490;-79
2023/03/06 11:31:07;;;;;;;2.05;0.50;;;;;;;7.47;55.04;100609.13;5072550;28;20041;-79
2023/03/06 11:33:45;;;;;;;0.50;0.50;;;;;;;7.48;54.58;100607.97;5072207;28;20057;-79
2023/03/06 11:36:43;;;;;;;0.70;0.60;;;;;;;7.65;55.89;100601.41;5072754;28;20068;-79
2023/03/06 11:39:37;;;;;;;0.85;0.70;;;;;;;7.79;56.58;100597.63;5071380;28;20045;-79
2023/03/06 11:42:20;;;;;;;4.20;0.68;;;;;;;7.86;56.08;100596.69;5056684;28;20144;-79